Time;durP1;ratioP1;P1;durP2;ratioP2;P2;SDS_P1;SDS_P2;PMS_P1;PMS_P2;Temp;Humidity;BMP_temperature;BMP_pressure;BME280_temperature;BME280_humidity;BME280_pressure;Samples;Min_cycle;Max_cycle;Signal;HPM_P1;HPM_P2
2023/10/02 00:02:06;;;;;;;21.88;10.13;;;10.80;99.90;;;;;;5014548;28;20550;-84
2023/10/02 00:04:34;;;;;;;21.02;9.80;;;10.80;99.90;;;;;;5030689;28;20113;-84
2023/10/02 00:07:06;;;;;;;21.40;9.63;;;10.80;99.90;;;;;;5014987;28;20034;-84
2023/10/02 00:09:36;;;;;;;18.90;8.85;;;10.70;99.90;;;;;;5014608;28;20508;-84
2023/10/02 00:12:11;;;;;;;24.77;10.10;;;10.70;99.90;;;;;;5015173;28;20034;-84
2023/10/02 00:14:43;;;;;;;24.15;10.35;;;10.70;99.90;;;;;;5014849;28;20034;-84
2023/10/02 00:17:18;;;;;;;20.30;9.93;;;10.60;99.90;;;;;;5014546;28;20034;-84
2023/10/02 00:19:49;;;;;;;24.05;10.35;;;10.60;99.90;;;;;;5014344;28;20044;-84
2023/10/02 00:22:35;;;;;;;27.17;9.93;;;10.60;99.90;;;;;;5015335;28;20111;-84
2023/10/02 00:25:09;;;;;;;23.08;11.38;;;10.60;99.90;;;;;;5015808;28;20503;-84
2023/10/02 00:27:36;;;;;;;22.52;10.40;;;10.50;99.90;;;;;;5014449;28;20095;-83
2023/10/02 00:30:07;;;;;;;23.60;10.57;;;10.50;99.90;;;;;;5030307;28;20113;-83
2023/10/02 00:32:34;;;;;;;24.55;11.82;;;10.50;99.90;;;;;;5014396;28;20029;-84
2023/10/02 00:35:02;;;;;;;25.52;10.50;;;10.60;99.90;;;;;;5014369;28;20116;-84
2023/10/02 00:37:44;;;;;;;21.67;9.88;;;10.60;99.90;;;;;;5014408;28;20370;-84
2023/10/02 00:40:12;;;;;;;20.90;10.63;;;10.60;99.90;;;;;;5014151;28;20496;-84
2023/10/02 00:42:38;;;;;;;20.20;9.50;;;10.70;99.90;;;;;;5014401;28;20510;-84
2023/10/02 00:45:04;;;;;;;21.27;9.52;;;10.70;99.90;;;;;;5030492;28;20038;-84
2023/10/02 00:47:48;;;;;;;28.92;10.48;;;10.70;99.90;;;;;;5013932;28;20041;-84
2023/10/02 00:50:18;;;;;;;25.23;11.82;;;10.60;99.90;;;;;;5013833;28;20045;-84
2023/10/02 00:52:49;;;;;;;29.35;11.82;;;10.60;99.90;;;;;;5013527;28;20033;-84
2023/10/02 00:55:18;;;;;;;26.70;10.90;;;10.50;99.90;;;;;;5013025;28;20029;-84
2023/10/02 00:57:45;;;;;;;21.38;10.75;;;10.50;99.90;;;;;;5012977;28;20034;-84
2023/10/02 01:00:22;;;;;;;24.25;11.70;;;10.50;99.90;;;;;;5013374;28;20030;-84
2023/10/02 01:02:59;;;;;;;27.20;12.05;;;10.50;99.90;;;;;;5013988;28;20072;-84
2023/10/02 01:05:30;;;;;;;25.50;11.32;;;10.50;99.90;;;;;;5013798;28;20044;-84
2023/10/02 01:07:58;;;;;;;25.73;11.80;;;10.40;99.90;;;;;;5013844;28;20045;-84
2023/10/02 01:10:29;;;;;;;27.58;11.65;;;10.40;99.90;;;;;;5013560;28;20175;-84
2023/10/02 01:13:01;;;;;;;25.65;11.48;;;10.40;99.90;;;;;;4997002;28;20385;-83
2023/10/02 01:15:28;;;;;;;25.27;11.63;;;10.40;99.90;;;;;;5030096;28;20389;-84
2023/10/02 01:18:18;;;;;;;25.33;11.50;;;10.40;99.90;;;;;;5014356;28;20092;-84
2023/10/02 01:20:47;;;;;;;23.88;10.75;;;10.40;99.90;;;;;;5012924;28;20033;-84
2023/10/02 01:23:16;;;;;;;28.60;12.02;;;10.30;99.90;;;;;;5012752;28;20480;-84
2023/10/02 01:25:47;;;;;;;24.60;11.45;;;10.40;99.90;;;;;;5012702;28;20037;-83
2023/10/02 01:28:20;;;;;;;31.73;12.00;;;10.40;99.90;;;;;;5013171;28;20030;-84
2023/10/02 01:30:47;;;;;;;23.55;10.75;;;10.30;99.90;;;;;;5013048;28;20810;-84
2023/10/02 01:35:47;;;;;;;24.98;10.88;;;10.30;99.90;;;;;;5029953;28;20084;-84
2023/10/02 01:38:26;;;;;;;23.57;11.37;;;10.30;99.90;;;;;;5013150;28;20034;-84
2023/10/02 01:41:06;;;;;;;21.67;11.25;;;10.20;99.90;;;;;;5013316;28;20084;-84
2023/10/02 01:43:43;;;;;;;24.80;10.98;;;10.10;99.90;;;;;;5012887;28;20060;-84
2023/10/02 01:46:10;;;;;;;26.42;10.77;;;10.00;99.90;;;;;;5013043;28;20077;-84
2023/10/02 01:48:40;;;;;;;26.15;10.90;;;10.00;99.90;;;;;;5012544;28;20033;-84
2023/10/02 01:51:31;;;;;;;26.00;11.07;;;9.90;99.90;;;;;;5012888;28;20033;-84
2023/10/02 01:54:02;;;;;;;27.45;11.27;;;9.80;99.90;;;;;;5012537;28;20034;-84
2023/10/02 01:56:34;;;;;;;21.85;11.40;;;9.90;99.90;;;;;;5013820;28;20350;-84
2023/10/02 01:59:14;;;;;;;36.92;13.18;;;9.80;99.90;;;;;;5012461;28;20022;-84
2023/10/02 02:01:52;;;;;;;28.02;12.82;;;9.80;99.90;;;;;;5012843;28;20121;-84
2023/10/02 02:04:23;;;;;;;28.42;11.90;;;9.80;99.90;;;;;;5012841;28;20033;-84
2023/10/02 02:06:56;;;;;;;23.27;10.88;;;9.80;99.90;;;;;;5029167;28;20045;-84
2023/10/02 02:09:23;;;;;;;29.13;11.93;;;9.80;99.90;;;;;;5012363;28;20069;-84
2023/10/02 02:12:06;;;;;;;24.15;10.65;;;9.80;99.90;;;;;;5012696;28;20022;-84
2023/10/02 02:15:04;;;;;;;25.92;10.35;;;9.70;99.90;;;;;;5012483;28;20485;-84
2023/10/02 02:17:28;;;;;;;30.02;11.02;;;9.70;99.90;;;;;;5011996;28;20413;-84
2023/10/02 02:19:59;;;;;;;27.70;11.38;;;9.60;99.90;;;;;;5013631;28;20041;-84
2023/10/02 02:22:31;;;;;;;26.52;11.70;;;9.60;99.90;;;;;;5012371;28;20050;-84
2023/10/02 02:25:00;;;;;;;26.38;11.77;;;9.60;99.90;;;;;;5011597;28;20494;-84
2023/10/02 02:27:29;;;;;;;26.17;11.00;;;9.60;99.90;;;;;;5028621;28;20052;-84
2023/10/02 02:29:57;;;;;;;26.02;10.88;;;9.50;99.90;;;;;;5012246;28;20037;-84
2023/10/02 02:32:43;;;;;;;26.25;11.70;;;9.50;99.90;;;;;;5011875;28;20481;-84
2023/10/02 02:35:15;;;;;;;27.70;11.30;;;9.40;99.90;;;;;;5011795;28;20030;-84
2023/10/02 02:37:41;;;;;;;29.10;12.25;;;9.40;99.90;;;;;;5012649;28;20521;-84
2023/10/02 02:40:25;;;;;;;24.25;11.90;;;9.40;99.90;;;;;;5012141;28;20397;-84
2023/10/02 02:42:52;;;;;;;28.58;13.02;;;9.30;99.90;;;;;;5013445;28;20061;-84
2023/10/02 02:45:29;;;;;;;28.38;12.65;;;9.30;99.90;;;;;;5012103;28;20107;-84
2023/10/02 02:47:57;;;;;;;32.75;13.48;;;9.30;99.90;;;;;;5012570;28;20049;-84
2023/10/02 02:50:28;;;;;;;32.45;13.05;;;9.30;99.90;;;;;;5012334;28;20030;-84
2023/10/02 02:53:16;;;;;;;26.20;12.90;;;9.20;99.90;;;;;;5012353;28;20084;-84
2023/10/02 02:55:42;;;;;;;29.00;12.85;;;9.30;99.90;;;;;;5011959;28;20069;-84
2023/10/02 02:58:07;;;;;;;26.83;12.80;;;9.30;99.90;;;;;;5012175;28;20480;-84
2023/10/02 03:00:35;;;;;;;27.48;11.68;;;9.30;99.90;;;;;;5011975;28;20034;-84
2023/10/02 03:03:02;;;;;;;24.73;12.10;;;9.30;99.90;;;;;;5011939;28;20099;-84
2023/10/02 03:05:38;;;;;;;37.65;15.15;;;9.30;99.90;;;;;;5028575;28;20038;-83
2023/10/02 03:08:05;;;;;;;27.63;12.65;;;9.30;99.90;;;;;;5011837;28;20130;-84
2023/10/02 03:10:39;;;;;;;28.73;12.02;;;9.40;99.90;;;;;;5011195;28;20034;-84
2023/10/02 03:13:15;;;;;;;35.00;12.80;;;9.40;99.90;;;;;;5011599;28;20034;-84
2023/10/02 03:15:47;;;;;;;27.30;11.98;;;9.30;99.90;;;;;;5011226;28;20524;-84
2023/10/02 03:18:24;;;;;;;31.05;12.73;;;9.30;99.90;;;;;;5011240;28;20385;-84
2023/10/02 03:20:51;;;;;;;26.08;11.73;;;9.20;99.90;;;;;;5011080;28;20041;-84
2023/10/02 03:23:18;;;;;;;31.27;12.48;;;9.20;99.90;;;;;;5011003;28;20393;-84
2023/10/02 03:25:45;;;;;;;31.42;12.35;;;9.30;99.90;;;;;;5011595;28;20030;-84
2023/10/02 03:28:27;;;;;;;28.40;12.95;;;9.20;99.90;;;;;;5011593;28;20554;-84
2023/10/02 03:30:57;;;;;;;28.77;12.57;;;9.20;99.90;;;;;;5014813;28;20034;-84
2023/10/02 03:33:25;;;;;;;30.30;13.32;;;9.30;99.90;;;;;;5015616;28;20034;-84
2023/10/02 03:36:01;;;;;;;46.38;14.35;;;9.20;99.90;;;;;;5015182;28;20022;-84
2023/10/02 03:38:34;;;;;;;29.42;12.80;;;9.20;99.90;;;;;;5014992;28;20740;-84
2023/10/02 03:41:05;;;;;;;28.73;12.60;;;9.20;99.90;;;;;;5014777;28;20033;-84
2023/10/02 03:43:49;;;;;;;28.77;12.45;;;9.20;99.90;;;;;;5015175;28;20493;-84
2023/10/02 03:46:35;;;;;;;32.38;13.00;;;9.10;99.90;;;;;;5015124;28;20708;-84
2023/10/02 03:49:04;;;;;;;29.90;12.80;;;9.10;99.90;;;;;;5015073;28;20044;-84
2023/10/02 03:51:36;;;;;;;27.77;12.85;;;9.20;99.90;;;;;;5014695;28;20034;-84
2023/10/02 03:54:17;;;;;;;31.77;14.00;;;9.10;99.90;;;;;;5014776;28;20395;-84
2023/10/02 03:56:50;;;;;;;33.35;14.40;;;9.10;99.90;;;;;;5014649;28;20033;-84
2023/10/02 03:59:21;;;;;;;35.97;13.00;;;9.10;99.90;;;;;;5014575;28;20481;-84
2023/10/02 04:01:49;;;;;;;34.70;14.88;;;9.10;99.90;;;;;;5014016;28;20389;-84
2023/10/02 04:04:19;;;;;;;29.70;14.27;;;9.10;99.90;;;;;;5014041;28;20557;-84
2023/10/02 04:06:53;;;;;;;33.60;14.50;;;9.10;99.90;;;;;;5014117;28;20034;-84
2023/10/02 04:09:26;;;;;;;33.45;14.95;;;9.10;99.90;;;;;;5013740;28;20033;-84
2023/10/02 04:11:54;;;;;;;30.85;12.75;;;9.00;99.90;;;;;;5014124;28;20057;-84
2023/10/02 04:14:38;;;;;;;30.05;13.23;;;9.00;99.90;;;;;;5014609;28;20030;-84
2023/10/02 04:19:49;;;;;;;31.65;13.00;;;9.10;99.90;;;;;;5031075;28;20065;-84
2023/10/02 04:22:30;;;;;;;28.63;12.45;;;9.00;99.90;;;;;;5014512;28;20038;-84
2023/10/02 04:25:03;;;;;;;34.47;14.43;;;9.00;99.90;;;;;;5015020;28;20034;-84
2023/10/02 04:32:48;;;;;;;34.50;14.55;;;9.10;99.90;;;;;;5031151;28;20030;-84
2023/10/02 04:37:59;;;;;;;34.33;14.60;;;9.10;99.90;;;;;;5030809;28;20040;-83
2023/10/02 04:40:44;;;;;;;30.58;13.77;;;9.00;99.90;;;;;;5013538;28;20474;-84
2023/10/02 04:45:46;;;;;;;33.22;14.43;;;8.90;99.90;;;;;;5030780;28;20063;-84
2023/10/02 04:48:13;;;;;;;42.28;16.35;;;9.00;99.90;;;;;;5013788;28;20129;-84
2023/10/02 04:50:46;;;;;;;37.22;16.23;;;8.90;99.90;;;;;;5030471;28;20493;-84
2023/10/02 04:55:42;;;;;;;36.85;17.00;;;9.00;99.90;;;;;;5030618;28;20041;-84
2023/10/02 04:58:09;;;;;;;36.42;16.60;;;9.20;99.90;;;;;;5014149;28;20033;-84
2023/10/02 05:00:38;;;;;;;33.88;14.60;;;9.20;99.90;;;;;;5014208;28;20041;-84
2023/10/02 05:03:18;;;;;;;35.90;15.00;;;9.20;99.90;;;;;;5014005;28;20397;-84
2023/10/02 05:05:49;;;;;;;31.25;14.68;;;9.10;99.90;;;;;;5013893;28;20448;-84
2023/10/02 05:08:21;;;;;;;32.03;14.40;;;9.10;99.90;;;;;;5013908;28;20033;-84
2023/10/02 05:11:03;;;;;;;28.75;12.95;;;9.10;99.90;;;;;;5013411;28;20152;-84
2023/10/02 05:16:13;;;;;;;34.17;17.02;;;9.00;99.90;;;;;;5029378;28;20076;-84
2023/10/02 05:18:44;;;;;;;38.75;16.15;;;9.00;99.90;;;;;;5012594;28;20084;-84
2023/10/02 05:21:11;;;;;;;29.60;14.25;;;9.00;99.90;;;;;;5013171;28;20116;-84
2023/10/02 05:23:38;;;;;;;36.15;14.23;;;9.00;99.90;;;;;;5013096;28;20738;-84
2023/10/02 05:26:04;;;;;;;39.78;16.35;;;9.00;99.90;;;;;;5013744;28;20124;-84
2023/10/02 05:28:43;;;;;;;36.42;17.45;;;8.90;99.90;;;;;;5009722;28;20188;-84
2023/10/02 05:31:11;;;;;;;36.85;15.95;;;9.00;99.90;;;;;;5012636;28;20044;-85
2023/10/02 05:33:37;;;;;;;33.38;15.82;;;9.00;99.90;;;;;;5012887;28;20171;-84
2023/10/02 05:36:06;;;;;;;32.63;14.13;;;9.00;99.90;;;;;;5014016;28;20033;-84
2023/10/02 05:38:33;;;;;;;28.98;13.82;;;9.00;99.90;;;;;;5028845;28;20037;-84
2023/10/02 05:41:03;;;;;;;37.28;15.13;;;9.10;99.90;;;;;;5011978;28;20347;-84
2023/10/02 05:43:31;;;;;;;30.67;14.23;;;9.10;99.90;;;;;;5012434;28;20037;-84
2023/10/02 05:45:57;;;;;;;37.88;15.80;;;9.10;99.90;;;;;;5012098;28;20096;-84
2023/10/02 05:50:56;;;;;;;38.83;15.10;;;9.20;99.90;;;;;;5029573;28;20088;-84
2023/10/02 05:53:29;;;;;;;33.70;14.65;;;9.30;99.90;;;;;;5028665;28;20795;-85
2023/10/02 05:58:41;;;;;;;29.38;13.90;;;9.40;99.90;;;;;;5029521;28;20037;-85
2023/10/02 06:01:18;;;;;;;30.88;13.35;;;9.40;99.90;;;;;;5012398;28;20478;-85
2023/10/02 06:03:56;;;;;;;30.77;13.05;;;9.40;99.90;;;;;;5012152;28;20599;-85
2023/10/02 06:06:23;;;;;;;28.70;13.80;;;9.50;99.90;;;;;;5029378;28;20477;-85
2023/10/02 06:08:54;;;;;;;32.97;15.55;;;9.60;99.90;;;;;;5012807;28;20449;-85
2023/10/02 06:11:28;;;;;;;30.90;13.85;;;9.70;99.90;;;;;;5028224;28;20034;-85
2023/10/02 06:14:09;;;;;;;36.85;14.70;;;9.70;99.90;;;;;;5012081;28;20030;-85
2023/10/02 06:16:42;;;;;;;30.55;14.43;;;9.80;99.90;;;;;;5011637;28;20050;-84
2023/10/02 06:19:13;;;;;;;30.33;14.68;;;9.90;99.90;;;;;;5012220;28;20661;-84
2023/10/02 06:21:47;;;;;;;32.28;14.65;;;10.00;99.90;;;;;;5028225;28;20436;-84
2023/10/02 06:24:16;;;;;;;41.58;18.27;;;10.10;99.90;;;;;;5011630;28;20096;-84
2023/10/02 06:26:57;;;;;;;32.63;17.10;;;10.20;99.90;;;;;;5028236;28;20347;-84
2023/10/02 06:29:35;;;;;;;39.42;17.10;;;10.30;99.90;;;;;;5028830;28;20100;-85
2023/10/02 06:32:05;;;;;;;40.78;17.52;;;10.40;99.90;;;;;;5011852;28;20739;-84
2023/10/02 06:34:37;;;;;;;35.22;17.48;;;10.50;99.90;;;;;;5026672;28;20137;-84
2023/10/02 06:37:16;;;;;;;32.95;16.33;;;10.60;99.90;;;;;;5012437;28;20045;-84
2023/10/02 06:39:59;;;;;;;40.20;16.83;;;10.70;99.90;;;;;;5029044;28;20034;-84
2023/10/02 06:42:25;;;;;;;34.20;15.55;;;10.80;99.90;;;;;;5012421;28;20041;-85
2023/10/02 06:44:53;;;;;;;35.97;14.70;;;10.90;99.90;;;;;;5012602;28;20084;-84
2023/10/02 06:47:22;;;;;;;27.25;14.10;;;11.00;99.90;;;;;;5012576;28;20037;-85
2023/10/02 06:49:51;;;;;;;31.20;14.18;;;11.20;99.90;;;;;;5011738;28;20068;-84
2023/10/02 06:52:18;;;;;;;33.70;16.13;;;11.30;99.90;;;;;;5028147;28;20053;-85
2023/10/02 06:54:49;;;;;;;31.60;14.35;;;11.40;99.90;;;;;;5013556;28;20025;-84
2023/10/02 06:57:18;;;;;;;29.92;13.35;;;11.50;99.90;;;;;;5011400;28;20481;-84
2023/10/02 06:59:52;;;;;;;38.53;15.98;;;11.70;99.90;;;;;;5010471;28;20033;-84
2023/10/02 07:02:27;;;;;;;43.00;15.30;;;11.80;99.90;;;;;;5010145;28;20038;-85
2023/10/02 07:04:54;;;;;;;35.10;15.23;;;12.00;99.90;;;;;;5016006;28;20087;-85
2023/10/02 07:07:25;;;;;;;32.13;14.88;;;12.10;99.90;;;;;;5018410;28;20029;-85
2023/10/02 07:09:55;;;;;;;33.00;14.18;;;12.30;99.90;;;;;;5034533;28;20239;-85
2023/10/02 07:12:27;;;;;;;36.67;15.48;;;12.40;99.90;;;;;;5034006;28;20042;-85
2023/10/02 07:15:10;;;;;;;35.70;15.80;;;12.50;99.90;;;;;;5034289;28;20393;-84
2023/10/02 07:17:47;;;;;;;33.20;15.27;;;12.70;99.90;;;;;;5017643;28;20045;-85
2023/10/02 07:20:20;;;;;;;32.58;15.18;;;12.80;99.90;;;;;;5017713;28;20045;-84
2023/10/02 07:22:49;;;;;;;28.70;14.52;;;13.00;99.90;;;;;;5034331;28;20047;-84
2023/10/02 07:25:24;;;;;;;38.20;13.60;;;13.10;99.90;;;;;;5018808;28;20030;-85
2023/10/02 07:27:50;;;;;;;28.33;13.27;;;13.30;99.90;;;;;;5018355;28;20095;-84
2023/10/02 07:30:26;;;;;;;28.00;13.75;;;13.50;99.90;;;;;;5034717;28;20029;-85
2023/10/02 07:32:53;;;;;;;29.17;11.68;;;13.70;99.90;;;;;;5018342;28;20041;-84
2023/10/02 07:35:22;;;;;;;28.80;12.75;;;13.80;99.90;;;;;;5016032;28;20038;-85
2023/10/02 07:37:58;;;;;;;23.85;12.57;;;14.00;99.90;;;;;;5033397;28;20037;-84
2023/10/02 07:40:27;;;;;;;25.42;11.15;;;14.20;99.90;;;;;;5018128;28;20080;-84
2023/10/02 07:42:52;;;;;;;28.60;12.80;;;14.30;99.90;;;;;;5018759;28;20030;-84
2023/10/02 07:45:25;;;;;;;29.92;12.60;;;14.50;99.90;;;;;;5018449;28;20112;-83
2023/10/02 07:50:41;;;;;;;27.45;12.98;;;14.80;99.90;;;;;;5034401;28;20037;-84
2023/10/02 07:53:08;;;;;;;27.00;11.73;;;15.00;99.90;;;;;;5033371;28;20026;-85
2023/10/02 07:55:39;;;;;;;22.40;10.90;;;15.20;99.90;;;;;;5034167;28;20037;-84
2023/10/02 07:58:07;;;;;;;25.23;12.15;;;15.30;99.90;;;;;;5017222;28;20034;-85
2023/10/02 08:00:38;;;;;;;28.95;11.90;;;15.40;99.90;;;;;;5017093;28;20045;-86
2023/10/02 08:03:09;;;;;;;22.05;11.40;;;15.50;99.90;;;;;;5017524;28;20029;-85
2023/10/02 08:05:35;;;;;;;26.48;11.90;;;15.70;99.90;;;;;;5017439;28;20057;-85
2023/10/02 08:08:10;;;;;;;25.80;11.55;;;15.80;99.90;;;;;;5034752;28;20072;-85
2023/10/02 08:10:53;;;;;;;27.15;12.82;;;16.00;99.90;;;;;;5017130;28;20045;-85
2023/10/02 08:13:32;;;;;;;27.38;10.88;;;16.20;99.90;;;;;;5017446;28;20544;-85
2023/10/02 08:16:12;;;;;;;23.38;11.80;;;16.30;99.90;;;;;;5015037;28;20113;-84
2023/10/02 08:18:57;;;;;;;23.63;11.07;;;16.50;99.90;;;;;;5030492;28;20030;-85
2023/10/02 08:21:35;;;;;;;30.67;11.85;;;16.50;99.90;;;;;;5030467;28;20030;-85
2023/10/02 08:24:06;;;;;;;22.08;10.75;;;16.70;99.90;;;;;;5014855;28;20367;-85
2023/10/02 08:26:39;;;;;;;21.13;10.45;;;16.80;99.90;;;;;;5030038;28;20065;-85
2023/10/02 08:29:14;;;;;;;33.25;12.00;;;16.90;99.90;;;;;;5016802;28;20699;-85
2023/10/02 08:31:49;;;;;;;20.30;9.95;;;17.00;99.90;;;;;;5033554;28;20046;-85
2023/10/02 08:34:24;;;;;;;23.05;10.13;;;17.00;99.90;;;;;;5017595;28;20033;-85
2023/10/02 08:37:05;;;;;;;26.75;10.73;;;17.20;99.90;;;;;;5034727;28;20120;-86
2023/10/02 08:39:34;;;;;;;23.08;9.95;;;17.30;99.90;;;;;;5034319;28;20033;-85
2023/10/02 08:42:08;;;;;;;22.40;10.60;;;17.40;99.90;;;;;;5017664;28;20044;-85
2023/10/02 08:44:38;;;;;;;33.95;10.75;;;17.50;99.90;;;;;;5034504;28;20040;-84
2023/10/02 08:47:29;;;;;;;21.83;10.25;;;17.60;99.90;;;;;;5018140;28;20034;-85
2023/10/02 08:50:04;;;;;;;21.67;9.98;;;17.80;99.90;;;;;;5017357;28;20037;-85
2023/10/02 08:52:38;;;;;;;18.38;8.60;;;18.60;99.90;;;;;;5017502;28;20043;-85
2023/10/02 08:55:34;;;;;;;22.00;9.50;;;19.80;99.90;;;;;;5017491;28;20029;-85
2023/10/02 09:03:43;;;;;;;26.35;9.77;;;21.70;99.90;;;;;;5034093;28;20131;-86
2023/10/02 09:09:16;;;;;;;19.77;9.40;;;21.90;99.90;;;;;;5034396;28;20401;-86
2023/10/02 09:11:44;;;;;;;21.35;9.45;;;22.10;99.90;;;;;;5017198;28;20037;-86
2023/10/02 09:14:20;;;;;;;18.38;8.93;;;22.40;99.90;;;;;;5032996;28;20029;-85
2023/10/02 09:17:07;;;;;;;15.95;8.05;;;22.80;99.90;;;;;;5016650;28;20021;-85
2023/10/02 09:19:37;;;;;;;21.58;9.95;;;23.30;99.90;;;;;;5033763;28;20033;-86
2023/10/02 09:22:07;;;;;;;19.60;8.55;;;23.70;99.90;;;;;;5033075;28;20041;-86
2023/10/02 09:24:40;;;;;;;24.83;10.50;;;24.50;99.90;;;;;;5016842;28;20033;-86
2023/10/02 09:27:23;;;;;;;19.75;10.38;;;24.90;99.90;;;;;;5033652;28;20029;-86
2023/10/02 09:30:21;;;;;;;17.17;9.75;;;24.70;99.90;;;;;;5016972;28;20424;-86
2023/10/02 09:32:53;;;;;;;19.15;9.10;;;24.80;99.90;;;;;;5016768;28;20120;-86
2023/10/02 09:35:32;;;;;;;19.23;10.23;;;25.60;99.90;;;;;;5033555;28;20034;-86
2023/10/02 09:38:06;;;;;;;18.08;10.13;;;26.00;99.90;;;;;;5017216;28;20029;-86
2023/10/02 09:40:58;;;;;;;18.75;9.65;;;26.30;99.90;;;;;;5033142;28;20120;-86
2023/10/02 09:43:24;;;;;;;20.85;9.27;;;26.60;99.90;;;;;;5016051;28;20124;-86
2023/10/02 09:45:53;;;;;;;20.60;10.85;;;25.40;99.90;;;;;;5032959;28;20473;-86
2023/10/02 09:48:46;;;;;;;19.70;10.07;;;25.10;99.90;;;;;;5016455;28;20053;-85
2023/10/02 09:51:37;;;;;;;21.00;10.05;;;24.70;99.90;;;;;;5035107;28;20037;-86
2023/10/02 09:54:14;;;;;;;18.38;9.50;;;24.90;99.90;;;;;;5033111;28;20040;-86
2023/10/02 09:57:05;;;;;;;19.80;9.52;;;25.30;99.90;;;;;;5033267;28;20036;-86
2023/10/02 09:59:48;;;;;;;21.60;10.50;;;25.50;99.90;;;;;;5032752;28;20033;-83
2023/10/02 10:13:36;;;;;;;23.88;10.50;;;26.50;99.90;;;;;;5032291;28;20060;-84
2023/10/02 10:16:21;;;;;;;19.30;9.55;;;25.60;99.90;;;;;;5015359;28;20485;-83
2023/10/02 10:21:56;;;;;;;22.38;11.52;;;25.60;99.90;;;;;;5031252;28;20041;-84
2023/10/02 10:24:56;;;;;;;19.73;10.48;;;25.80;99.90;;;;;;5014809;28;20088;-84
2023/10/02 10:27:40;;;;;;;22.27;10.73;;;25.50;99.90;;;;;;5014697;28;20045;-84
2023/10/02 10:33:16;;;;;;;18.33;10.15;;;24.50;99.90;;;;;;5006380;28;20099;-84
2023/10/02 10:35:51;;;;;;;19.90;10.85;;;24.40;99.90;;;;;;5031549;28;20025;-84
2023/10/02 10:38:26;;;;;;;21.15;9.95;;;24.60;99.90;;;;;;5014579;28;20080;-83
2023/10/02 10:41:01;;;;;;;26.17;10.88;;;24.40;99.90;;;;;;5014241;28;20091;-84
2023/10/02 10:43:43;;;;;;;20.95;10.50;;;24.00;99.90;;;;;;5031161;28;20036;-83
2023/10/02 10:46:28;;;;;;;19.38;10.32;;;23.80;99.90;;;;;;5014953;28;20125;-84
2023/10/02 10:48:59;;;;;;;19.60;10.32;;;23.60;99.90;;;;;;5015139;28;20029;-84
2023/10/02 10:51:28;;;;;;;23.95;11.25;;;23.70;99.90;;;;;;5015104;28;20041;-84
2023/10/02 10:54:19;;;;;;;23.05;11.15;;;24.10;99.90;;;;;;5031979;28;20026;-83
2023/10/02 10:56:56;;;;;;;26.77;10.75;;;24.40;99.90;;;;;;5032537;28;20037;-84
2023/10/02 10:59:24;;;;;;;23.10;11.32;;;24.20;99.90;;;;;;5015218;28;20047;-84
2023/10/02 11:04:40;;;;;;;23.85;11.60;;;24.40;99.90;;;;;;5031480;28;20044;-84
2023/10/02 11:07:19;;;;;;;;;;;24.30;99.90;;;;;;5015706;28;20389;-83
2023/10/02 11:12:57;;;;;;;22.73;12.32;;;24.30;99.90;;;;;;5031600;28;20806;-83
2023/10/02 11:18:20;;;;;;;21.23;11.20;;;25.00;99.90;;;;;;5031430;28;20481;-84
2023/10/02 11:21:21;;;;;;;24.15;11.85;;;25.60;99.90;;;;;;5031168;28;20037;-84
2023/10/02 11:23:48;;;;;;;23.45;11.98;;;25.80;99.90;;;;;;5014805;28;20096;-84
2023/10/02 11:26:21;;;;;;;20.67;11.68;;;26.00;99.90;;;;;;5014372;28;20045;-84
2023/10/02 11:28:50;;;;;;;25.05;11.27;;;26.40;99.90;;;;;;4998357;28;20064;-84
2023/10/02 11:31:30;;;;;;;23.58;11.02;;;26.40;99.90;;;;;;5030573;28;20038;-84
2023/10/02 11:34:08;;;;;;;21.53;11.00;;;26.80;99.90;;;;;;5031071;28;20045;-84
2023/10/02 11:36:36;;;;;;;21.20;10.63;;;27.10;99.90;;;;;;5014853;28;20524;-84
2023/10/02 11:39:14;;;;;;;19.30;10.07;;;26.80;99.90;;;;;;5014618;28;20025;-84
2023/10/02 11:41:40;;;;;;;19.02;10.82;;;26.90;99.90;;;;;;5016273;28;20033;-85
2023/10/02 11:44:11;;;;;;;20.85;11.23;;;28.10;99.90;;;;;;5013920;28;20035;-84
2023/10/02 11:46:47;;;;;;;;;;;28.80;99.90;;;;;;5014668;28;20059;-84
2023/10/02 11:49:13;;;;;;;19.70;10.45;;;29.20;99.90;;;;;;5030949;28;19956;-84
2023/10/02 11:51:40;;;;;;;21.20;11.30;;;29.60;99.90;;;;;;5015764;28;20076;-84
2023/10/02 11:54:09;;;;;;;20.17;10.43;;;30.40;99.90;;;;;;5018214;28;20034;-85
2023/10/02 11:56:35;;;;;;;18.08;10.18;;;30.50;98.00;;;;;;5017407;28;20639;-84
2023/10/02 11:59:02;;;;;;;21.77;10.85;;;30.70;97.40;;;;;;5017876;28;20044;-85
2023/10/02 12:01:29;;;;;;;19.85;10.73;;;30.10;96.60;;;;;;5018564;28;20030;-84
2023/10/02 12:03:56;;;;;;;20.85;10.98;;;29.30;96.90;;;;;;5018691;28;20140;-84
2023/10/02 12:06:27;;;;;;;20.00;10.80;;;28.90;98.00;;;;;;5017552;28;20036;-84
2023/10/02 12:08:58;;;;;;;21.98;11.25;;;29.00;98.00;;;;;;5018119;28;20097;-84
2023/10/02 12:11:28;;;;;;;22.55;11.32;;;28.40;97.90;;;;;;5018205;28;20095;-85
2023/10/02 12:13:54;;;;;;;19.20;11.77;;;28.10;98.40;;;;;;5034803;28;20037;-83
2023/10/02 12:16:23;;;;;;;22.13;11.20;;;28.30;98.10;;;;;;5034201;28;20535;-84
2023/10/02 12:18:50;;;;;;;20.77;11.20;;;27.60;98.40;;;;;;5017133;28;20132;-84
2023/10/02 12:21:19;;;;;;;21.42;10.60;;;28.00;98.40;;;;;;5032920;28;20040;-85
2023/10/02 12:23:46;;;;;;;20.45;10.63;;;28.00;98.50;;;;;;5033495;28;20464;-85
2023/10/02 12:26:24;;;;;;;20.13;11.43;;;27.90;98.60;;;;;;5000968;28;20029;-85
2023/10/02 12:28:50;;;;;;;19.52;10.57;;;27.90;97.50;;;;;;5017830;28;20053;-85
2023/10/02 12:31:19;;;;;;;21.38;10.68;;;28.00;98.00;;;;;;5001604;28;20073;-85
2023/10/02 12:33:46;;;;;;;21.48;11.27;;;28.10;98.50;;;;;;5017204;28;20041;-84
2023/10/02 12:36:19;;;;;;;20.92;10.77;;;27.80;98.30;;;;;;5034358;28;20091;-85
2023/10/02 12:38:47;;;;;;;18.65;11.00;;;27.50;99.00;;;;;;5017396;28;20644;-84
2023/10/02 12:41:27;;;;;;;18.85;10.65;;;27.70;97.80;;;;;;5000724;28;20021;-84
2023/10/02 12:43:56;;;;;;;18.75;11.00;;;27.90;99.10;;;;;;5018098;28;20044;-84
2023/10/02 12:46:24;;;;;;;21.65;10.45;;;28.30;99.80;;;;;;5035668;28;20915;-84
2023/10/02 12:48:50;;;;;;;19.17;10.95;;;28.10;99.20;;;;;;5017589;28;20115;-84
2023/10/02 12:51:17;;;;;;;22.00;11.77;;;27.60;99.10;;;;;;5015998;28;20520;-84
2023/10/02 12:53:43;;;;;;;25.63;11.93;;;27.40;99.90;;;;;;5000052;28;20033;-84
2023/10/02 12:56:15;;;;;;;20.38;11.40;;;27.10;99.20;;;;;;5033823;28;20033;-84
2023/10/02 12:58:41;;;;;;;23.10;12.30;;;26.90;99.90;;;;;;5017127;28;20033;-84
2023/10/02 13:01:12;;;;;;;21.38;11.13;;;27.00;99.90;;;;;;5016635;28;20029;-84
2023/10/02 13:03:38;;;;;;;19.95;11.00;;;26.80;99.90;;;;;;5016571;28;20499;-84
2023/10/02 13:06:04;;;;;;;23.25;10.98;;;26.50;99.90;;;;;;5016578;28;20037;-84
2023/10/02 13:08:32;;;;;;;25.02;12.18;;;26.00;99.90;;;;;;5000945;28;20477;-85
2023/10/02 13:10:58;;;;;;;22.83;11.48;;;25.60;99.90;;;;;;5016893;28;20104;-84
2023/10/02 13:13:24;;;;;;;25.92;11.85;;;25.30;99.90;;;;;;5017389;28;20060;-84
2023/10/02 13:15:51;;;;;;;26.38;12.20;;;25.20;99.90;;;;;;5016793;28;20033;-84
2023/10/02 13:18:18;;;;;;;24.80;11.60;;;25.00;99.90;;;;;;5017026;28;20081;-84
2023/10/02 13:20:44;;;;;;;23.75;11.15;;;24.90;99.90;;;;;;5033080;28;20073;-84
2023/10/02 13:23:12;;;;;;;22.13;12.02;;;24.80;99.90;;;;;;5016364;28;20037;-83
2023/10/02 13:25:45;;;;;;;25.13;12.00;;;24.80;99.90;;;;;;5032986;28;20176;-84
2023/10/02 13:28:11;;;;;;;26.85;12.43;;;24.60;99.90;;;;;;5016460;28;20033;-84
2023/10/02 13:30:40;;;;;;;24.08;11.85;;;24.30;99.90;;;;;;5032505;28;20033;-84
2023/10/02 13:33:06;;;;;;;24.60;11.68;;;24.00;99.90;;;;;;5033116;28;20041;-84
2023/10/02 13:35:36;;;;;;;25.17;11.20;;;23.90;99.90;;;;;;5033029;28;20488;-84
2023/10/02 13:38:02;;;;;;;23.07;11.23;;;23.80;99.90;;;;;;5033207;28;20412;-84
2023/10/02 13:40:31;;;;;;;25.88;12.02;;;23.70;99.90;;;;;;5032794;28;20040;-84
2023/10/02 13:42:58;;;;;;;21.50;11.82;;;23.60;99.90;;;;;;5015933;28;20030;-84
2023/10/02 13:45:24;;;;;;;29.80;12.85;;;23.50;99.90;;;;;;5016348;28;20047;-84
2023/10/02 13:47:53;;;;;;;36.67;12.88;;;23.50;99.90;;;;;;5015945;28;20469;-84
2023/10/02 13:50:19;;;;;;;26.83;12.48;;;23.30;99.90;;;;;;5033012;28;20033;-85
2023/10/02 13:52:45;;;;;;;27.42;12.95;;;23.20;99.90;;;;;;5016676;28;20034;-84
2023/10/02 13:55:19;;;;;;;32.13;12.45;;;23.10;99.90;;;;;;5016283;28;20068;-84
2023/10/02 13:57:47;;;;;;;26.48;12.55;;;23.00;99.90;;;;;;5034355;28;20112;-84
2023/10/02 14:00:17;;;;;;;27.33;12.50;;;22.90;99.90;;;;;;5016845;28;20026;-85
2023/10/02 14:02:45;;;;;;;27.27;12.45;;;22.80;99.90;;;;;;5016480;28;20041;-84